Home > Products > Valid Products > MTR

000
SAUS46 KPQR 281754
MTRREO
METAR KREO 281752Z AUTO 04006KT 07/02 A3034 RMK AO1 SLP288 T00670022
10072 20006 51017





000
SAUS46 KPQR 281653
MTRREO
METAR KREO 281652Z AUTO 13006KT 05/02 A3033 RMK AO1 SLP283 T00500017





000
SAUS46 KPQR 281553
MTRREO
METAR KREO 281552Z AUTO 03004KT 01/M01 A3031 RMK AO1 SLP283
T00111011





000
SAUS46 KPQR 281553
MTRREO
METAR KREO 281552Z AUTO 03004KT 01/M01 A3031 RMK AO1 SLP283
T00111011





000
SAUS46 KPQR 281453
MTRREO
METAR KREO 281452Z AUTO 00000KT 02/M01 A3029 RMK AO1 SLP272
T00171006 53010





000
SAUS46 KPQR 281354
MTRREO
METAR KREO 281352Z AUTO 00000KT 02/M01 A3027 RMK AO1 SLP268
T00171006





000
SAUS46 KPQR 281154
MTRREO
METAR KREO 281152Z AUTO 16003KT 03/01 A3025 RMK AO1 SLP257 70002
T00280006 10033 20006 51013





000
SAUS46 KPQR 281054
MTRREO
METAR KREO 281052Z AUTO 14008KT 03/01 A3024 RMK AO1 SLP252 T00280006





000
SAUS46 KPQR 280954
MTRREO
METAR KREO 280952Z AUTO 15008KT 03/01 A3023 RMK AO1 SLP248 T00280006





000
SAUS46 KPQR 280954
MTRREO
METAR KREO 280952Z AUTO 15008KT 03/01 A3023 RMK AO1 SLP248 T00280006





000
SAUS46 KPQR 280854
MTRREO
METAR KREO 280852Z AUTO 15007KT 03/01 A3021 RMK AO1 SLP245 T00330006
51013





000
SAUS46 KPQR 280753
MTRREO
METAR KREO 280752Z AUTO 00000KT 01/M01 A3020 RMK AO1 SLP246
T00061011 400441017





000
SAUS46 KPQR 280753
MTRREO
METAR KREO 280752Z AUTO 00000KT 01/M01 A3020 RMK AO1 SLP246
T00061011 400441017





000
SAUS46 KPQR 280654
MTRREO
METAR KREO 280652Z AUTO 16004KT 01/M01 A3018 RMK AO1 SLP243
T00111006





000
SAUS46 KPQR 280654
MTRREO
METAR KREO 280652Z AUTO 16004KT 01/M01 A3018 RMK AO1 SLP243
T00111006





000
SAUS46 KPQR 280553
MTRREO
METAR KREO 280552Z AUTO 09004KT 01/00 A3017 RMK AO1 SLP236 60001
T00110000 10044 20011 53015





000
SAUS46 KPQR 280553
MTRREO
METAR KREO 280552Z AUTO 09004KT 01/00 A3017 RMK AO1 SLP236 60001
T00110000 10044 20011 53015





000
SAUS46 KPQR 280453
MTRREO
METAR KREO 280452Z AUTO 00000KT 03/02 A3015 RMK AO1 SLP230 T00280017





000
SAUS46 KPQR 280353
MTRREO
METAR KREO 280352Z AUTO 00000KT 03/02 A3013 RMK AO1 SLP221 T00330022





000
SAUS46 KPQR 280353
MTRREO
METAR KREO 280352Z AUTO 00000KT 03/02 A3013 RMK AO1 SLP221 T00330022





000
SAUS46 KPQR 280253
MTRREO
METAR KREO 280252Z AUTO 32004KT 03/02 A3012 RMK AO1 SLP217 60001
T00330022 53009





000
SAUS46 KPQR 280253
MTRREO
METAR KREO 280252Z AUTO 32004KT 03/02 A3012 RMK AO1 SLP217 60001
T00330022 53009





000
SAUS46 KPQR 280153
MTRREO
METAR KREO 280152Z AUTO 16008KT 03/02 A3009 RMK AO1 SLP209 T00330022





000
SAUS46 KPQR 280055
MTRREO
METAR KREO 280052Z AUTO VRB05KT 04/02 A3010 RMK AO1 SLP210 P0001
T00390022





000
SAUS46 KPQR 272354
MTRREO
METAR KREO 272352Z AUTO 00000KT 04/02 A3009 RMK AO1 SLP206 60001
T00440017 10044 21006 53004





000
SAUS46 KPQR 272253
MTRREO
METAR KREO 272252Z AUTO 00000KT 03/01 A3008 RMK AO1 SLP206 P0001
T00330011





000
SAUS46 KPQR 272154
MTRREO
METAR KREO 272152Z AUTO 00000KT 04/01 A3006 RMK AO1 SLP198 T00440011





000
SAUS46 KPQR 272053
MTRREO
METAR KREO 272052Z AUTO 00000KT 02/00 A3007 RMK AO1 SLP204 T00170000
58005





000
SAUS46 KPQR 271953
MTRREO
METAR KREO 271952Z AUTO 00000KT 01/M01 A3008 RMK AO1 SLP205
T00111006





000
SAUS46 KPQR 271854
MTRREO
METAR KREO 271852Z AUTO 00000KT 00/M01 A3009 RMK AO1 SLP211
T00001011





000
SAUS46 KPQR 271754
MTRREO
METAR KREO 271752Z AUTO 12003KT M01/M02 A3009 RMK AO1 SLP213
T10061022 11006 21017 53005





000
SAUS46 KPQR 271654
MTRREO
METAR KREO 271652Z AUTO 00000KT M01/M03 A3008 RMK AO1 SLP210
T10111028





000
SAUS46 KPQR 271554
MTRREO
METAR KREO 271552Z AUTO 00000KT M02/M03 A3008 RMK AO1 SLP211
T10171028





000
SAUS46 KPQR 271454
MTRREO
METAR KREO 271452Z AUTO 13004KT M02/M03 A3007 RMK AO1 SLP209
T10171028 53002





000
SAUS46 KPQR 271353
MTRREO
METAR KREO 271352Z AUTO 14003KT M02/M03 A3007 RMK AO1 SLP208
T10171028





000
SAUS46 KPQR 271258
MTRREO
METAR KREO 271252Z AUTO 03004KT M02/M03 A3006 RMK AO1 SLP200
T10171028





000
SAUS46 KPQR 271153
MTRREO
METAR KREO 271152Z AUTO 08004KT M01/M02 A3006 RMK AO1 SLP202
T10111022 11006 21017 55005





000
SAUS46 KPQR 271053
MTRREO
METAR KREO 271052Z AUTO 06003KT M02/M03 A3006 RMK AO1 SLP201
T10171028





000
SAUS46 KPQR 270954
MTRREO
METAR KREO 270952Z AUTO 07003KT M01/M03 A3007 RMK AO1 SLP206
T10111028





000
SAUS46 KPQR 270954
MTRREO
METAR KREO 270952Z AUTO 07003KT M01/M03 A3007 RMK AO1 SLP206
T10111028





000
SAUS46 KPQR 270854
MTRREO
METAR KREO 270852Z AUTO 00000KT M01/M02 A3008 RMK AO1 SLP208
T10111022 58007





000
SAUS46 KPQR 270754
MTRREO
METAR KREO 270752Z AUTO 00000KT M01/M02 A3009 RMK AO1 SLP213
T10061017 400111033





000
SAUS46 KPQR 270653
MTRREO
METAR KREO 270652Z AUTO 00000KT M01/M02 A3010 RMK AO1 SLP218
T10061017





000
SAUS46 KPQR 270554
MTRREO
METAR KREO 270552Z AUTO 36005KT M01/M02 A3011 RMK AO1 SLP219
T10061017 10011 21006 57003





000
SAUS46 KPQR 270454
MTRREO
METAR KREO 270452Z AUTO 04005KT M01/M02 A3011 RMK AO1 SLP222
T10061017





000
SAUS46 KPQR 270354
MTRREO
METAR KREO 270352Z AUTO 00000KT M01/M01 A3011 RMK AO1 SLP222
T10061011





000
SAUS46 KPQR 270253
MTRREO
METAR KREO 270252Z AUTO 00000KT M01/M01 A3012 RMK AO1 SLP224
T10061011 55007





000
SAUS46 KPQR 270153
MTRREO
METAR KREO 270152Z AUTO 28004KT M01/M02 A3012 RMK AO1 SLP224
T10061017





000
SAUS46 KPQR 270054
MTRREO
METAR KREO 270052Z AUTO 05005KT 01/M01 A3012 RMK AO1 SLP225
T00111006





000
SAUS46 KPQR 262354
MTRREO
METAR KREO 262352Z AUTO 04006KT 01/M01 A3014 RMK AO1 SLP231
T00111006 10011 21017 56013





000
SAUS46 KPQR 262253
MTRREO
METAR KREO 262252Z AUTO 03004KT 01/M01 A3016 RMK AO1 SLP234
T00111006





000
SAUS46 KPQR 262153
MTRREO
METAR KREO 262152Z AUTO 31003KT 01/M01 A3017 RMK AO1 SLP240
T00061006





000
SAUS46 KPQR 262053
MTRREO
METAR KREO 262052Z AUTO 00000KT 01/M01 A3018 RMK AO1 SLP246
T00061011 58018





000
SAUS46 KPQR 261954
MTRREO
METAR KREO 261952Z AUTO 07003KT 00/M01 A3021 RMK AO1 SLP252
T00001011





000
SAUS46 KPQR 261854
MTRREO
METAR KREO 261852Z AUTO 02005KT M01/M02 A3023 RMK AO1 SLP260
T10061022





000
SAUS46 KPQR 261753
MTRREO
METAR KREO 261752Z AUTO 04005KT M01/M03 A3024 RMK AO1 SLP265
T10111028 11011 21028 55000





000
SAUS46 KPQR 261654
MTRREO
METAR KREO 261652Z AUTO 35006KT M02/M03 A3024 RMK AO1 SLP264
T10221033





000
SAUS46 KPQR 261553
MTRREO
METAR KREO 261552Z AUTO 02008KT M02/M04 A3023 RMK AO1 SLP260
T10221039





000
SAUS46 KPQR 261453
MTRREO
METAR KREO 261452Z AUTO 06006KT M02/M03 A3024 RMK AO1 SLP259
T10221033 56006





000
SAUS46 KPQR 261354
MTRREO
METAR KREO 261352Z AUTO 00000KT M02/M03 A3025 RMK AO1 SLP264
T10221033





000
SAUS46 KPQR 261154
MTRREO
METAR KREO 261152Z AUTO 10005KT M02/M04 A3027 RMK AO1 SLP259
T10221039 10011 21033 58008





000
SAUS46 KPQR 261053
MTRREO
METAR KREO 261052Z AUTO 07003KT M02/M03 A3028 RMK AO1 SLP260
T10171028





000
SAUS46 KPQR 260953
MTRREO
METAR KREO 260952Z AUTO 07005KT M02/M03 A3029 RMK AO1 SLP262
T10171028





000
SAUS46 KPQR 260854
MTRREO
METAR KREO 260852Z AUTO 07005KT M02/M03 A3029 RMK AO1 SLP267
T10171033 58010





000
SAUS46 KPQR 260754
MTRREO
METAR KREO 260752Z AUTO 00000KT 00/M02 A3031 RMK AO1 SLP274
T00001017 401391022





000
SAUS46 KPQR 260653
MTRREO
METAR KREO 260652Z AUTO 06007KT 01/M01 A3033 RMK AO1 SLP280
T00111011





000
SAUS46 KPQR 260553
MTRREO
METAR KREO 260552Z AUTO 06005KT 01/M01 A3033 RMK AO1 SLP285
T00111011 10122 20011 53004





000
SAUS46 KPQR 260454
MTRREO
METAR KREO 260452Z AUTO 01003KT 02/M01 A3033 RMK AO1 SLP290
T00171006





000
SAUS46 KPQR 260354
MTRREO
METAR KREO 260352Z AUTO 05006KT 03/01 A3031 RMK AO1 SLP284 T00330006





000
SAUS46 KPQR 260253
MTRREO
METAR KREO 260252Z AUTO 07005KT 07/02 A3032 RMK AO1 SLP283 T00670022
53001





000
SAUS46 KPQR 260154
MTRREO
METAR KREO 260152Z AUTO 06008KT 06/02 A3031 RMK AO1 SLP283 T00560022





000
SAUS46 KPQR 260154
MTRREO
METAR KREO 260152Z AUTO 06008KT 06/02 A3031 RMK AO1 SLP283 T00560022





000
SAUS46 KPQR 260054
MTRREO
METAR KREO 260052Z AUTO 03006KT 10/03 A3030 RMK AO1 SLP272 T01000028





000
SAUS46 KPQR 252355
MTRREO
METAR KREO 252352Z AUTO 04008KT 12/03 A3031 RMK AO1 SLP272 T01220028
10139 20056 56009





000
SAUS46 KPQR 252253
MTRREO
METAR KREO 252252Z AUTO 01005KT 13/03 A3032 RMK AO1 SLP273 T01330028





000
SAUS46 KPQR 252154
MTRREO
METAR KREO 252152Z AUTO 03004KT 13/03 A3033 RMK AO1 SLP276 T01330028





000
SAUS46 KPQR 252053
MTRREO
METAR KREO 252052Z AUTO 01005KT 13/01 A3034 RMK AO1 SLP280 T01280011
58023





000
SAUS46 KPQR 251954
MTRREO
METAR KREO 251952Z AUTO 00000KT 11/01 A3037 RMK AO1 SLP289 T01060006





000
SAUS46 KPQR 251854
MTRREO
METAR KREO 251852Z AUTO 00000KT 08/00 A3041 RMK AO1 SLP304 T00830000





    US Dept of Commerce
    National Oceanic and Atmospheric Administration
    National Weather Service
    1325 East West Highway
    Silver Spring, MD 20910
    Page Author: NWS Internet Services Team
Disclaimer
Information Quality
Credits
Glossary
Privacy Policy
Freedom of Information Act (FOIA)
About Us
Career Opportunities